1870 NOT_NAMED (1870101S07108)


IBTrACS version v04r00. Visit IBTrACS website for data access.
Please direct all questions to the IBTrACS Q and A forum

Storm track - Intensity - Wind Radii - Intensity Data - Source Data - All data

Summary Information

Storm ID 1870101S07108
Start Apr 11 06Z
End Apr 19 06Z
ATCF IDs
Track status Best track data.

Storm track plot

Map of storm track

Intensity plots

No Intensity information for this storm


Radial wind information

No radial wind information for this storm


Position and Intensity Table

BASIN ISO_TIME_________ NATURE LAT LON
degrees north degrees east
SI 1870-04-11 06:00:00 NR -6.50 107.90
SI 09:00:00 NR -6.63 107.68
SI 12:00:00 NR -6.75 107.46
SI 15:00:00 NR -6.88 107.24
SI 18:00:00 NR -7.02 107.01
SI 21:00:00 NR -7.15 106.77
SI 1870-04-12 00:00:00 NR -7.29 106.53
SI 03:00:00 NR -7.44 106.27
SI 06:00:00 NR -7.60 106.00
SI 09:00:00 NR -7.77 105.72
SI 12:00:00 NR -7.94 105.42
SI 15:00:00 NR -8.12 105.11
SI 18:00:00 NR -8.31 104.79
SI 21:00:00 NR -8.50 104.47
SI 1870-04-13 00:00:00 NR -8.69 104.15
SI 03:00:00 NR -8.90 103.82
SI 06:00:00 NR -9.10 103.50
SI 09:00:00 NR -9.29 103.16
SI 12:00:00 NR -9.49 102.82
SI 15:00:00 NR -9.69 102.48
SI 18:00:00 NR -9.90 102.15
SI 21:00:00 NR -10.11 101.83
SI 1870-04-14 00:00:00 NR -10.33 101.53
SI 03:00:00 NR -10.56 101.25
SI 06:00:00 NR -10.80 101.00
SI 09:00:00 NR -11.05 100.76
SI 12:00:00 NR -11.31 100.53
SI 15:00:00 NR -11.58 100.34
SI 18:00:00 NR -11.86 100.17
SI 21:00:00 NR -12.14 100.03
SI 1870-04-15 00:00:00 NR -12.43 99.92
SI 03:00:00 NR -12.72 99.84
SI 06:00:00 NR -13.00 99.80
SI 09:00:00 NR -13.29 99.78
SI 12:00:00 NR -13.59 99.80
SI 15:00:00 NR -13.88 99.86
SI 18:00:00 NR -14.17 99.93
SI 21:00:00 NR -14.45 100.03
SI 1870-04-16 00:00:00 NR -14.71 100.15
SI 03:00:00 NR -14.97 100.27
SI 06:00:00 NR -15.20 100.40
SI 09:00:00 NR -15.40 100.50
SI 12:00:00 NR -15.59 100.61
SI 15:00:00 NR -15.76 100.73
SI 18:00:00 NR -15.92 100.86
SI 21:00:00 NR -16.07 100.99
SI 1870-04-17 00:00:00 NR -16.21 101.12
SI 03:00:00 NR -16.35 101.26
SI 06:00:00 NR -16.50 101.40
SI 09:00:00 NR -16.66 101.54
SI 12:00:00 NR -16.82 101.68
SI 15:00:00 NR -16.99 101.82
SI 18:00:00 NR -17.15 101.97
SI 21:00:00 NR -17.31 102.12
SI 1870-04-18 00:00:00 NR -17.47 102.28
SI 03:00:00 NR -17.64 102.44
SI 06:00:00 NR -17.80 102.60
SI 09:00:00 NR -17.96 102.77
SI 12:00:00 NR -18.13 102.94
SI 15:00:00 NR -18.29 103.11
SI 18:00:00 NR -18.45 103.28
SI 21:00:00 NR -18.61 103.46
SI 1870-04-19 00:00:00 NR -18.78 103.64
SI 03:00:00 NR -18.94 103.82
SI 06:00:00 NR -19.10 104.00

Source Information

Agency Information
USA
TOKYO
CMA
HKO
NEWDELHI
REUNION WMO-Best-Tracks.txt:Line=842:xxxx870124
BOM
NADI
WELLINGTON
DS824
TD9636
TD9635
NEUMANN
MLC

All available IBTrACS Data

SEASON BASIN SUBBASIN ISO_TIME_________ NATURE LAT LON DIST2LAND LANDFALL IFLAG USA SSHS REUNION LAT REUNION LON REUNION TYPE REUNION TNUM STORM SPEED STORM DIR
Year degrees north degrees east km km 1 degrees north degrees east 1 kts degrees
1870 SI WA 1870-04-11 06:00:00 NR -6.50 107.90 0 0 _____O________ -1 -6.50 107.90 99 9.90 5 240
1870 SI WA 09:00:00 NR -6.63 107.68 0 0 _____P________ -1 -6.63 107.68 99 5 240
1870 SI WA 12:00:00 NR -6.75 107.46 0 0 _____P________ -1 -6.75 107.46 99 5 240
1870 SI WA 15:00:00 NR -6.88 107.24 0 0 _____P________ -1 -6.88 107.24 99 5 240
1870 SI WA 18:00:00 NR -7.02 107.01 0 0 _____P________ -1 -7.02 107.01 99 5 240
1870 SI WA 21:00:00 NR -7.15 106.77 0 0 _____P________ -1 -7.15 106.77 99 6 240
1870 SI WA 1870-04-12 00:00:00 NR -7.29 106.53 0 0 _____P________ -1 -7.29 106.53 99 6 240
1870 SI WA 03:00:00 NR -7.44 106.27 11 11 _____P________ -1 -7.44 106.27 99 6 240
1870 SI WA 06:00:00 NR -7.60 106.00 49 49 _____O________ -1 -7.60 106.00 99 9.90 6 240
1870 SI WA 09:00:00 NR -7.77 105.72 89 89 _____P________ -1 -7.77 105.72 99 7 240
1870 SI WA 12:00:00 NR -7.94 105.42 123 123 _____P________ -1 -7.94 105.42 99 7 239
1870 SI WA 15:00:00 NR -8.12 105.11 146 146 _____P________ -1 -8.12 105.11 99 7 239
1870 SI WA 18:00:00 NR -8.31 104.79 173 173 _____P________ -1 -8.31 104.79 99 7 239
1870 SI WA 21:00:00 NR -8.50 104.47 205 205 _____P________ -1 -8.50 104.47 99 8 239
1870 SI WA 1870-04-13 00:00:00 NR -8.69 104.15 245 245 _____P________ -1 -8.69 104.15 99 8 238
1870 SI WA 03:00:00 NR -8.90 103.82 281 281 _____P________ -1 -8.90 103.82 99 8 238
1870 SI WA 06:00:00 NR -9.10 103.50 318 318 _____O________ -1 -9.10 103.50 99 9.90 8 239
1870 SI WA 09:00:00 NR -9.29 103.16 356 356 _____P________ -1 -9.29 103.16 99 8 240
1870 SI WA 12:00:00 NR -9.49 102.82 401 401 _____P________ -1 -9.49 102.82 99 8 239
1870 SI WA 15:00:00 NR -9.69 102.48 440 440 _____P________ -1 -9.69 102.48 99 8 238
1870 SI WA 18:00:00 NR -9.90 102.15 479 479 _____P________ -1 -9.90 102.15 99 8 237
1870 SI WA 21:00:00 NR -10.11 101.83 526 526 _____P________ -1 -10.11 101.83 99 8 235
1870 SI WA 1870-04-14 00:00:00 NR -10.33 101.53 565 565 _____P________ -1 -10.33 101.53 99 7 232
1870 SI WA 03:00:00 NR -10.56 101.25 604 604 _____P________ -1 -10.56 101.25 99 7 228
1870 SI WA 06:00:00 NR -10.80 101.00 643 643 _____O________ -1 -10.80 101.00 99 9.90 7 225
1870 SI WA 09:00:00 NR -11.05 100.76 682 682 _____P________ -1 -11.05 100.76 99 7 222
1870 SI WA 12:00:00 NR -11.31 100.53 721 721 _____P________ -1 -11.31 100.53 99 7 217
1870 SI WA 15:00:00 NR -11.58 100.34 760 760 _____P________ -1 -11.58 100.34 99 7 213
1870 SI WA 18:00:00 NR -11.86 100.17 792 792 _____P________ -1 -11.86 100.17 99 6 208
1870 SI WA 21:00:00 NR -12.14 100.03 823 823 _____P________ -1 -12.14 100.03 99 6 203
1870 SI WA 1870-04-15 00:00:00 NR -12.43 99.92 855 855 _____P________ -1 -12.43 99.92 99 6 197
1870 SI WA 03:00:00 NR -12.72 99.84 887 887 _____P________ -1 -12.72 99.84 99 6 192
1870 SI WA 06:00:00 NR -13.00 99.80 912 912 _____O________ -1 -13.00 99.80 99 9.90 6 186
1870 SI WA 09:00:00 NR -13.29 99.78 937 937 _____P________ -1 -13.29 99.78 99 6 177
1870 SI WA 12:00:00 NR -13.59 99.80 964 964 _____P________ -1 -13.59 99.80 99 6 174
1870 SI WA 15:00:00 NR -13.88 99.86 984 984 _____P________ -1 -13.88 99.86 99 6 168
1870 SI WA 18:00:00 NR -14.17 99.93 1011 1005 _____P________ -1 -14.17 99.93 99 6 163
1870 SI WA 21:00:00 NR -14.45 100.03 1023 1023 _____P________ -1 -14.45 100.03 99 6 160
1870 SI WA 1870-04-16 00:00:00 NR -14.71 100.15 1045 1039 _____P________ -1 -14.71 100.15 99 6 156
1870 SI WA 03:00:00 NR -14.97 100.27 1062 1062 _____P________ -1 -14.97 100.27 99 5 153
1870 SI WA 06:00:00 NR -15.20 100.40 1076 1076 _____O________ -1 -15.20 100.40 99 9.90 5 153
1870 SI WA 09:00:00 NR -15.40 100.50 1091 1091 _____P________ -1 -15.40 100.50 99 4 152
1870 SI WA 12:00:00 NR -15.59 100.61 1105 1100 _____P________ -1 -15.59 100.61 99 4 148
1870 SI WA 15:00:00 NR -15.76 100.73 1120 1116 _____P________ -1 -15.76 100.73 99 4 144
1870 SI WA 18:00:00 NR -15.92 100.86 1121 1121 _____P________ -1 -15.92 100.86 99 4 142
1870 SI WA 21:00:00 NR -16.07 100.99 1137 1132 _____P________ -1 -16.07 100.99 99 4 139
1870 SI WA 1870-04-17 00:00:00 NR -16.21 101.12 1141 1136 _____P________ -1 -16.21 101.12 99 4 138
1870 SI WA 03:00:00 NR -16.35 101.26 1150 1150 _____P________ -1 -16.35 101.26 99 4 137
1870 SI WA 06:00:00 NR -16.50 101.40 1154 1154 _____O________ -1 -16.50 101.40 99 9.90 4 139
1870 SI WA 09:00:00 NR -16.66 101.54 1169 1164 _____P________ -1 -16.66 101.54 99 4 141
1870 SI WA 12:00:00 NR -16.82 101.68 1169 1169 _____P________ -1 -16.82 101.68 99 4 140
1870 SI WA 15:00:00 NR -16.99 101.82 1185 1180 _____P________ -1 -16.99 101.82 99 4 139
1870 SI WA 18:00:00 NR -17.15 101.97 1186 1186 _____P________ -1 -17.15 101.97 99 4 139
1870 SI WA 21:00:00 NR -17.31 102.12 1202 1198 _____P________ -1 -17.31 102.12 99 4 138
1870 SI WA 1870-04-18 00:00:00 NR -17.47 102.28 1215 1215 _____P________ -1 -17.47 102.28 99 4 137
1870 SI WA 03:00:00 NR -17.64 102.44 1221 1221 _____P________ -1 -17.64 102.44 99 4 137
1870 SI WA 06:00:00 NR -17.80 102.60 1235 1235 _____O________ -1 -17.80 102.60 99 9.90 5 136
1870 SI WA 09:00:00 NR -17.96 102.77 1237 1223 _____P________ -1 -17.96 102.77 99 5 135
1870 SI WA 12:00:00 NR -18.13 102.94 1223 1194 _____P________ -1 -18.13 102.94 99 5 135
1870 SI WA 15:00:00 NR -18.29 103.11 1194 1170 _____P________ -1 -18.29 103.11 99 5 134
1870 SI WA 18:00:00 NR -18.45 103.28 1165 1141 _____P________ -1 -18.45 103.28 99 5 134
1870 SI WA 21:00:00 NR -18.61 103.46 1141 1123 _____P________ -1 -18.61 103.46 99 5 134
1870 SI WA 1870-04-19 00:00:00 NR -18.78 103.64 1123 1099 _____P________ -1 -18.78 103.64 99 5 134
1870 SI WA 03:00:00 NR -18.94 103.82 1099 1071 _____P________ -1 -18.94 103.82 99 5 134
1870 SI WA 06:00:00 NR -19.10 104.00 1071 _____O________ -1 -19.10 104.00 99 9.90 5 133